PAWO2: Black Bear Creek, Pawnee, OK

                                SHEF ID:       PAWO2     Black Bear Creek at Pawnee, OK
STATION TYPE:
Regulating: Stage = 17.00, Flow = 9631

PRECIP STAGE RIV-FLOW BAT-LOAD
in ft cfs volt
Ccp-Rev Ccp-Rev Ccp-Rev Ccp-Rev
(America/Chicago)
04/26 00:00 ---- 6.51 1712 12.40
04/26 01:00 ---- 6.50 1707 12.39
04/26 02:00 ---- 6.43 1664 12.37
04/26 03:00 ---- 6.37 1625 12.36
04/26 04:00 ---- 6.33 1599 12.34
04/26 05:00 ---- 6.30 1580 12.33
04/26 06:00 ---- 6.25 1549 12.31
04/26 07:00 ---- 6.22 1530 12.27
04/26 08:00 ---- 6.15 1486 12.31
04/26 09:00 ---- 6.11 1462 12.60
04/26 10:00 ---- 6.04 1420 12.84
04/26 11:00 ---- 5.99 1390 13.30
04/26 12:00 ---- 5.92 1348 13.92
04/26 13:00 ---- 5.84 1302 13.92
04/26 14:00 ---- 5.80 1279 13.84
04/26 15:00 ---- 5.76 1256 13.19
04/26 16:00 ---- 5.72 1234 13.16
04/26 17:00 ---- 5.67 1206 13.07
04/26 18:00 ---- 5.65 1195 13.07
04/26 19:00 ---- 5.60 1167 13.11
04/26 20:00 ---- 5.57 1151 13.14
04/26 21:00 ---- 5.54 1135 12.77
04/26 22:00 ---- 5.50 1114 12.37
04/26 23:00 ---- 5.47 1098 12.42
Data processed at Mon 27Apr2026 04:36 GMT

NOTICE: If you are parsing this page

Please convert to using our Data API. Starting early 2026 we will be migrating to: https://water.usace.army.mil with modern pages rendered in JavaScript. When this migration completes you will no longer be able to scrape this page! CWMSDataAPI (CDA)

Timeseries IDs (TSIDs)

TSIDs used from left to right in the data table
PAWN.Precip-Inc.Total.1Hour.1Hour.Ccp-Rev
PAWN.Stage.Inst.1Hour.0.Ccp-Rev
PAWN.Flow.Inst.1Hour.0.Ccp-Rev
PAWN.Volt-Battery Load.Inst.1Hour.0.Ccp-Rev

                            

All information presented herein is the property of the government of the United States of America and may be revised or deleted at any time without prior notice. Dissemination of this information without the expressed written consent of the Public Affairs Office, Tulsa District U.S. Army Corps of Engineers is strictly prohibited. These data are gathered electronically and, as presented, have NOT undergone any form of quality control. These data are NOT guaranteed to be valid or correct.